Time;durP1;ratioP1;P1;durP2;ratioP2;P2;SDS_P1;SDS_P2;PMS_P1;PMS_P2;Temp;Humidity;BMP_temperature;BMP_pressure;BME280_temperature;BME280_humidity;BME280_pressure;Samples;Min_cycle;Max_cycle;Signal;HPM_P1;HPM_P2
2022/08/14 00:00:44;;;;;;;13.80;10.35;;;;;;;;;;4967684;28;20432;-73
2022/08/14 00:03:28;;;;;;;17.13;11.20;;;;;;;19.80;nan;99894.13;4971478;28;20039;-72
2022/08/14 00:05:56;;;;;;;13.82;10.77;;;;;;;19.84;nan;99856.88;4975676;28;20094;-72
2022/08/14 00:08:21;;;;;;;16.60;11.43;;;;;;;19.79;nan;99847.09;4969333;28;20811;-72
2022/08/14 00:10:48;;;;;;;15.63;11.52;;;;;;;19.75;nan;99843.44;4969224;28;20038;-72
2022/08/14 00:13:16;;;;;;;16.98;11.68;;;;;;;19.68;nan;99821.69;4971095;28;20023;-71
2022/08/14 00:15:44;;;;;;;16.60;11.52;;;;;;;19.62;nan;99847.69;4963230;28;20033;-71
2022/08/14 00:18:11;;;;;;;16.73;10.87;;;;;;;19.61;nan;99856.81;4967478;28;20077;-72
2022/08/14 00:20:40;;;;;;;14.05;10.98;;;;;;;19.59;nan;99858.19;4969517;28;20027;-72
2022/08/14 00:23:07;;;;;;;16.00;10.52;;;;;;;19.54;nan;99880.44;4966301;28;20115;-72
2022/08/14 00:25:33;;;;;;;18.90;11.10;;;;;;;19.41;nan;99849.97;4967380;28;20057;-71
2022/08/14 00:27:58;;;;;;;14.40;10.90;;;;;;;19.42;nan;99864.09;4968328;28;20564;-71
2022/08/14 00:30:25;;;;;;;15.55;11.15;;;;;;;19.45;nan;99884.91;4985612;28;20030;-72
2022/08/14 00:32:50;;;;;;;14.38;10.63;;;;;;;;;;4978141;28;20041;-73
2022/08/14 00:35:16;;;;;;;14.57;11.07;;;;;;;19.42;nan;99872.94;4994449;28;20431;-73
2022/08/14 00:37:44;;;;;;;14.85;11.00;;;;;;;19.27;nan;99852.63;4972360;28;20070;-73
2022/08/14 00:40:13;;;;;;;15.80;11.75;;;;;;;19.43;nan;99881.72;4990949;28;20062;-71
2022/08/14 00:42:38;;;;;;;15.68;12.05;;;;;;;;;;4994756;28;20030;-72
2022/08/14 00:45:06;;;;;;;18.98;12.27;;;;;;;19.42;nan;99880.13;4986697;28;20125;-73
2022/08/14 00:47:34;;;;;;;15.48;11.48;;;;;;;19.37;nan;99870.38;4986411;28;20089;-72
2022/08/14 00:50:01;;;;;;;14.23;11.23;;;;;;;;;;4988859;28;20053;-72
2022/08/14 00:52:27;;;;;;;16.25;11.70;;;;;;;19.39;nan;99880.72;4987551;28;20075;-71
2022/08/14 00:54:53;;;;;;;18.75;12.02;;;;;;;19.31;nan;99861.63;4985522;28;20030;-73
2022/08/14 00:57:24;;;;;;;17.48;11.93;;;;;;;19.36;nan;99926.72;4989250;28;20039;-73
2022/08/14 00:59:50;;;;;;;17.90;12.20;;;;;;;19.30;nan;99878.75;4971855;28;20113;-71
2022/08/14 01:02:18;;;;;;;16.30;12.02;;;;;;;;;;4987782;28;20030;-73
2022/08/14 01:04:45;;;;;;;15.40;11.30;;;;;;;19.37;nan;99874.88;4989111;28;20101;-72
2022/08/14 01:07:19;;;;;;;18.70;12.85;;;;;;;19.39;nan;99876.16;4987793;28;20485;-72
2022/08/14 01:09:50;;;;;;;14.10;11.57;;;;;;;19.41;nan;99881.22;4989881;28;20041;-72
2022/08/14 01:12:16;;;;;;;15.18;11.75;;;;;;;19.43;nan;99882.50;4985803;28;20431;-73
2022/08/14 01:14:42;;;;;;;14.57;11.38;;;;;;;19.43;nan;99905.75;4991686;28;20054;-71
2022/08/14 01:17:07;;;;;;;16.30;12.48;;;;;;;19.43;nan;99874.50;4991194;28;20425;-70
2022/08/14 01:22:17;;;;;;;18.25;12.48;;;;;;;19.42;nan;99880.13;4986419;28;20026;-73
2022/08/14 01:24:43;;;;;;;16.15;11.98;;;;;;;19.43;nan;99865.69;4989597;28;20049;-72
2022/08/14 01:27:17;;;;;;;16.45;12.40;;;;;;;19.38;nan;99881.81;4989620;28;20468;-72
2022/08/14 01:29:45;;;;;;;18.13;11.82;;;;;;;19.41;nan;99878.56;4992048;28;20045;-72
2022/08/14 01:32:10;;;;;;;18.10;12.45;;;;;;;19.40;nan;99868.97;4993253;28;20026;-73
2022/08/14 01:34:36;;;;;;;13.73;11.80;;;;;;;19.41;nan;99875.88;4987891;28;20037;-73
2022/08/14 01:37:02;;;;;;;15.43;11.77;;;;;;;19.39;nan;99862.81;4988757;28;20049;-73
2022/08/14 01:39:27;;;;;;;14.50;11.65;;;;;;;19.38;nan;99860.47;4962348;28;20034;-72
2022/08/14 01:41:59;;;;;;;15.13;11.75;;;;;;;;;;4991006;28;20073;-72
2022/08/14 01:44:28;;;;;;;13.55;11.43;;;;;;;19.42;nan;99864.91;4991226;28;20133;-72
2022/08/14 01:46:55;;;;;;;;;;;;;;;19.44;nan;99869.94;4992600;28;20050;-72
2022/08/14 01:49:22;;;;;;;14.40;11.35;;;;;;;19.40;nan;99855.63;4990085;28;19913;-72
2022/08/14 01:51:53;;;;;;;15.32;12.18;;;;;;;19.37;nan;99837.50;4989164;28;20101;-72
2022/08/14 01:54:20;;;;;;;16.92;12.80;;;;;;;;;;4989950;28;20027;-72
2022/08/14 01:56:46;;;;;;;18.17;12.52;;;;;;;19.45;nan;99863.53;4990925;28;20117;-71
2022/08/14 01:59:22;;;;;;;17.15;12.70;;;;;;;19.42;nan;99864.09;4992278;28;20125;-71
2022/08/14 02:01:50;;;;;;;15.43;12.30;;;;;;;19.40;nan;99917.81;4976607;28;20069;-73
2022/08/14 02:04:18;;;;;;;16.58;11.48;;;;;;;19.43;nan;99868.38;4991581;28;20026;-72
2022/08/14 02:06:44;;;;;;;16.45;12.77;;;;;;;19.44;nan;99856.59;4988655;28;20038;-72
2022/08/14 02:09:09;;;;;;;17.20;13.00;;;;;;;19.44;nan;99856.59;4992554;28;20076;-71
2022/08/14 02:11:35;;;;;;;15.95;12.73;;;;;;;19.39;nan;99819.31;4991808;28;20026;-71
2022/08/14 02:14:05;;;;;;;18.60;13.02;;;;;;;19.39;nan;99894.84;4972443;28;20034;-72
2022/08/14 02:16:38;;;;;;;17.63;12.73;;;;;;;19.43;nan;99857.69;4973006;28;20842;-72
2022/08/14 02:19:10;;;;;;;18.80;12.43;;;;;;;19.32;nan;99841.88;4990237;28;20035;-72
2022/08/14 02:21:36;;;;;;;18.52;12.43;;;;;;;19.37;nan;99864.22;4990999;28;20037;-72
2022/08/14 02:24:04;;;;;;;18.50;12.02;;;;;;;19.20;nan;99843.44;4970242;28;20046;-72
2022/08/14 02:26:32;;;;;;;21.90;13.32;;;;;;;19.29;nan;99858.47;4991948;28;20117;-71
2022/08/14 02:29:01;;;;;;;17.17;13.18;;;;;;;19.29;nan;99855.81;4987704;28;20122;-73
2022/08/14 02:31:31;;;;;;;16.65;13.20;;;;;;;19.19;nan;99845.31;4989183;28;20030;-73
2022/08/14 02:33:58;;;;;;;16.40;13.10;;;;;;;19.24;nan;99847.91;4990186;28;20030;-72
2022/08/14 02:36:23;;;;;;;17.92;13.70;;;;;;;19.26;nan;99787.00;4990773;28;20438;-72
2022/08/14 02:38:49;;;;;;;18.42;13.60;;;;;;;19.27;nan;99871.31;4974977;28;20027;-72
2022/08/14 02:41:16;;;;;;;16.63;13.13;;;;;;;19.26;nan;99874.31;4988227;28;20030;-72
2022/08/14 02:43:42;;;;;;;18.15;13.15;;;;;;;19.20;nan;99852.25;4980317;28;20397;-73
2022/08/14 02:46:09;;;;;;;16.08;12.88;;;;;;;19.19;nan;99848.00;4963387;28;20806;-74
2022/08/14 02:48:40;;;;;;;18.38;13.18;;;;;;;19.21;nan;99869.06;4964424;28;20034;-73
2022/08/14 02:51:09;;;;;;;17.17;13.27;;;;;;;19.17;nan;99844.03;4992323;28;20063;-72
2022/08/14 02:53:38;;;;;;;22.98;14.23;;;;;;;19.13;nan;99905.25;4987933;28;20169;-72
2022/08/14 02:56:04;;;;;;;17.08;13.68;;;;;;;19.12;nan;99863.59;4991684;28;20041;-72
2022/08/14 02:58:29;;;;;;;18.83;13.63;;;;;;;19.06;nan;99822.88;4987311;28;20038;-73
2022/08/14 03:00:55;;;;;;;20.83;13.25;;;;;;;19.04;nan;99848.28;4976026;28;20034;-72
2022/08/14 03:03:22;;;;;;;21.23;13.35;;;;;;;19.06;nan;99848.78;4984993;28;20026;-71
2022/08/14 03:05:50;;;;;;;16.77;12.73;;;;;;;18.99;nan;99840.38;4989224;28;20022;-73
2022/08/14 03:08:16;;;;;;;18.98;13.43;;;;;;;19.02;nan;99811.22;4985425;28;20034;-73
2022/08/14 03:10:42;;;;;;;19.67;12.75;;;;;;;19.06;nan;99918.16;4984510;28;20030;-72
2022/08/14 03:13:09;;;;;;;15.88;12.85;;;;;;;19.05;nan;99847.19;4991461;28;20035;-71
2022/08/14 03:15:52;;;;;;;18.60;13.32;;;;;;;;;;4986869;28;20026;-72
2022/08/14 03:18:22;;;;;;;19.13;13.55;;;;;;;19.05;nan;99855.97;4984463;28;20038;-73
2022/08/14 03:20:49;;;;;;;16.50;13.63;;;;;;;19.00;nan;99832.06;4985634;28;20042;-73
2022/08/14 03:23:14;;;;;;;18.98;13.88;;;;;;;19.03;nan;99857.34;4991879;28;20072;-71
2022/08/14 03:25:40;;;;;;;20.65;13.48;;;;;;;19.00;nan;99860.63;4985670;28;20058;-73
2022/08/14 03:28:07;;;;;;;19.58;14.65;;;;;;;18.97;nan;99866.56;4983197;28;20046;-72
2022/08/14 03:30:33;;;;;;;18.95;14.88;;;;;;;18.95;nan;99869.50;4970831;28;20038;-72
2022/08/14 03:32:58;;;;;;;21.17;14.88;;;;;;;18.86;nan;99864.03;4960891;28;20050;-72
2022/08/14 03:35:24;;;;;;;21.15;14.45;;;;;;;;;;4990687;28;20042;-73
2022/08/14 03:37:51;;;;;;;18.92;13.80;;;;;;;18.89;nan;99863.47;4986580;28;20385;-72
2022/08/14 03:40:19;;;;;;;16.50;14.40;;;;;;;18.86;nan;99860.59;4988148;28;20034;-72
2022/08/14 03:42:44;;;;;;;18.80;14.32;;;;;;;18.80;nan;99829.75;4985953;28;20121;-73
2022/08/14 03:45:10;;;;;;;22.90;13.75;;;;;;;18.80;nan;99854.56;4990345;28;20126;-71
2022/08/14 03:47:39;;;;;;;17.35;13.95;;;;;;;18.75;nan;99824.47;4989096;28;20084;-72
2022/08/14 03:50:09;;;;;;;20.90;14.90;;;;;;;;;;4986857;28;20041;-73
2022/08/14 03:52:37;;;;;;;18.40;14.63;;;;;;;;;;4986386;28;20041;-73
2022/08/14 03:55:05;;;;;;;17.92;14.23;;;;;;;;;;4986063;28;20034;-72
2022/08/14 03:57:32;;;;;;;17.80;13.65;;;;;;;18.73;nan;99824.00;4984793;28;20113;-72
2022/08/14 04:00:01;;;;;;;17.42;14.07;;;;;;;18.66;nan;99829.69;4986145;28;20030;-72
2022/08/14 04:02:27;;;;;;;18.92;14.25;;;;;;;18.68;nan;99855.00;4987547;28;20493;-72
2022/08/14 04:04:52;;;;;;;19.92;14.38;;;;;;;18.73;nan;99864.00;4987868;28;20071;-73
2022/08/14 04:07:18;;;;;;;20.38;15.32;;;;;;;;;;4988794;28;20031;-72
2022/08/14 04:09:43;;;;;;;20.13;15.87;;;;;;;18.75;nan;99870.63;4985916;28;20121;-72
2022/08/14 04:12:08;;;;;;;21.50;15.27;;;;;;;18.74;nan;99854.91;4985188;28;20268;-73
2022/08/14 04:14:34;;;;;;;18.15;14.55;;;;;;;18.66;nan;99859.81;4972078;28;20481;-73
2022/08/14 04:17:00;;;;;;;22.92;15.13;;;;;;;;;;4988928;28;20034;-73
2022/08/14 04:19:25;;;;;;;19.70;14.97;;;;;;;;;;4991895;28;20041;-73
2022/08/14 04:21:50;;;;;;;21.38;15.93;;;;;;;;;;4987017;28;20782;-73
2022/08/14 04:24:16;;;;;;;20.27;15.32;;;;;;;18.67;nan;99882.72;4986831;28;20472;-73
2022/08/14 04:26:43;;;;;;;20.30;14.55;;;;;;;18.69;nan;99853.91;4984245;28;20046;-74
2022/08/14 04:29:12;;;;;;;18.10;15.13;;;;;;;18.64;nan;99976.66;4987738;28;20535;-75
2022/08/14 04:31:38;;;;;;;21.77;15.85;;;;;;;;;;4985160;28;20034;-74
2022/08/14 04:34:04;;;;;;;20.38;15.40;;;;;;;18.68;nan;99868.31;4983803;28;20035;-74
2022/08/14 04:36:31;;;;;;;18.15;15.75;;;;;;;18.62;nan;99914.81;4988392;28;20044;-74
2022/08/14 04:44:25;;;;;;;21.65;16.00;;;;;;;18.66;nan;99862.50;4989241;28;20062;-75
2022/08/14 04:49:35;;;;;;;21.60;16.33;;;;;;;18.61;nan;99853.78;4988397;28;20026;-74
2022/08/14 04:52:02;;;;;;;19.15;15.95;;;;;;;;;;4969909;28;20041;-73
2022/08/14 04:54:29;;;;;;;22.15;16.75;;;;;;;18.66;nan;99849.16;4990070;28;20493;-73
2022/08/14 04:56:54;;;;;;;24.27;16.80;;;;;;;18.65;nan;99886.78;4988402;28;20046;-73
2022/08/14 04:59:21;;;;;;;21.92;16.40;;;;;;;18.58;nan;99859.69;4987402;28;20034;-73
2022/08/14 05:01:46;;;;;;;21.52;16.48;;;;;;;18.60;nan;99852.97;4984666;28;20122;-72
2022/08/14 05:04:12;;;;;;;23.13;16.30;;;;;;;18.57;nan;99847.44;4991019;28;20121;-73
2022/08/14 05:06:37;;;;;;;20.83;16.75;;;;;;;;;;4985272;28;20384;-72
2022/08/14 05:09:05;;;;;;;20.98;16.25;;;;;;;18.59;nan;99854.06;4972882;28;20445;-74
2022/08/14 05:11:32;;;;;;;23.60;17.63;;;;;;;;;;4984740;28;20090;-73
2022/08/14 05:14:00;;;;;;;24.02;17.15;;;;;;;18.54;nan;99824.81;4984735;28;20054;-73
2022/08/14 05:16:28;;;;;;;22.75;16.95;;;;;;;18.60;nan;99844.19;4987976;28;20150;-71
2022/08/14 05:18:53;;;;;;;23.73;17.60;;;;;;;;;;4970134;28;20038;-72
2022/08/14 05:21:19;;;;;;;26.95;18.58;;;;;;;;;;4987720;28;20393;-73
2022/08/14 05:23:44;;;;;;;23.70;18.30;;;;;;;18.66;nan;99841.16;4988458;28;20072;-72
2022/08/14 05:26:13;;;;;;;24.13;18.30;;;;;;;18.67;nan;99850.72;4986697;28;20030;-73
2022/08/14 05:28:43;;;;;;;22.08;18.23;;;;;;;18.71;nan;99854.41;4990428;28;20038;-72
2022/08/14 05:31:09;;;;;;;24.30;18.67;;;;;;;;;;4988528;28;20500;-72
2022/08/14 05:33:36;;;;;;;21.70;17.90;;;;;;;18.65;nan;99842.25;4976291;28;20041;-73
2022/08/14 05:36:08;;;;;;;24.20;18.38;;;;;;;18.76;nan;99863.41;4991497;28;20030;-72
2022/08/14 05:38:39;;;;;;;22.48;17.45;;;;;;;18.74;nan;99837.00;4990382;28;20030;-73
2022/08/14 05:41:16;;;;;;;25.63;17.17;;;;;;;18.79;nan;99847.63;4990577;28;20477;-73
2022/08/14 05:43:43;;;;;;;22.38;17.40;;;;;;;18.80;nan;99853.78;4988457;28;20030;-72
2022/08/14 05:46:14;;;;;;;22.38;17.42;;;;;;;18.80;nan;99846.56;4987400;28;20069;-73
2022/08/14 05:48:39;;;;;;;23.27;18.40;;;;;;;18.79;nan;99838.84;4985739;28;20027;-73
2022/08/14 05:51:05;;;;;;;23.60;18.35;;;;;;;18.86;nan;99872.03;4973570;28;20503;-73
2022/08/14 05:53:31;;;;;;;22.63;17.70;;;;;;;18.90;nan;99826.91;4986688;28;20061;-74
2022/08/14 05:55:57;;;;;;;24.05;17.33;;;;;;;18.88;nan;99848.53;4991950;28;20062;-72
2022/08/14 05:58:24;;;;;;;24.23;17.50;;;;;;;18.88;nan;99811.19;4993650;28;20033;-74
2022/08/14 06:00:49;;;;;;;22.38;17.13;;;;;;;;;;4991909;28;20030;-73
2022/08/14 06:03:18;;;;;;;24.08;18.38;;;;;;;18.99;nan;99848.38;4985615;28;20090;-72
2022/08/14 06:05:45;;;;;;;23.48;17.63;;;;;;;18.97;nan;99845.22;4993071;28;20113;-72
2022/08/14 06:08:25;;;;;;;22.58;17.77;;;;;;;19.03;nan;99828.00;4987492;28;20122;-72
2022/08/14 06:10:52;;;;;;;21.60;16.85;;;;;;;;;;4983400;28;20038;-73
2022/08/14 06:13:18;;;;;;;21.80;17.90;;;;;;;19.07;nan;99851.13;4988192;28;20469;-73
2022/08/14 06:15:45;;;;;;;25.27;18.27;;;;;;;19.08;nan;99852.75;4992518;28;20480;-72
2022/08/14 06:18:11;;;;;;;22.48;17.88;;;;;;;;;;4988613;28;20141;-73
2022/08/14 06:20:37;;;;;;;21.65;17.85;;;;;;;19.15;nan;99859.56;4989310;28;20515;-73
2022/08/14 06:23:03;;;;;;;24.52;18.48;;;;;;;;;;4982796;28;20388;-73
2022/08/14 06:25:29;;;;;;;23.02;18.23;;;;;;;19.17;nan;99855.50;4987769;28;20034;-73
2022/08/14 06:27:55;;;;;;;20.10;17.08;;;;;;;19.23;nan;99851.66;4988565;28;20046;-72
2022/08/14 06:30:27;;;;;;;20.13;16.48;;;;;;;19.29;nan;99887.06;4990111;28;20100;-71
2022/08/14 06:32:52;;;;;;;21.80;16.33;;;;;;;19.26;nan;99835.03;4987356;28;20042;-73
2022/08/14 06:35:22;;;;;;;20.70;17.23;;;;;;;19.36;nan;99867.97;4983669;28;20085;-73
2022/08/14 06:37:50;;;;;;;21.55;16.90;;;;;;;19.39;nan;99862.03;4983395;28;20536;-75
2022/08/14 06:40:24;;;;;;;23.20;18.33;;;;;;;19.40;nan;99885.00;4986834;28;20043;-74
2022/08/14 06:42:50;;;;;;;21.60;16.88;;;;;;;19.40;nan;99868.97;4982892;28;20499;-73
2022/08/14 06:45:15;;;;;;;21.08;17.05;;;;;;;;;;4962096;28;20038;-74
2022/08/14 06:47:43;;;;;;;20.40;17.13;;;;;;;19.40;nan;99860.97;4983362;28;20728;-75
2022/08/14 06:50:11;;;;;;;23.48;17.38;;;;;;;19.45;nan;99850.19;4989674;28;20030;-72
2022/08/14 06:52:38;;;;;;;20.70;16.70;;;;;;;19.53;nan;99876.19;4974211;28;20387;-74
2022/08/14 06:55:04;;;;;;;23.58;18.20;;;;;;;;;;4993695;28;20085;-75
2022/08/14 06:57:36;;;;;;;20.30;17.20;;;;;;;19.59;nan;99877.69;4986973;28;20550;-75
2022/08/14 07:00:03;;;;;;;20.60;17.63;;;;;;;;;;4987317;28;20039;-74
2022/08/14 07:07:57;;;;;;;25.40;19.90;;;;;;;19.80;nan;99882.63;4984533;28;20031;-75
2022/08/14 07:10:22;;;;;;;24.38;19.27;;;;;;;19.84;nan;99870.25;4985863;28;20053;-74
2022/08/14 07:12:48;;;;;;;24.00;18.35;;;;;;;19.86;nan;99881.44;4991936;28;20038;-76
2022/08/14 07:15:13;;;;;;;22.30;18.92;;;;;;;19.98;nan;99895.06;4977504;28;20141;-74
2022/08/14 07:17:44;;;;;;;25.58;18.90;;;;;;;20.05;nan;99862.59;4982174;28;20093;-74
2022/08/14 07:20:10;;;;;;;22.45;17.63;;;;;;;20.10;nan;99878.50;4990059;28;20484;-73
2022/08/14 07:22:35;;;;;;;25.50;17.95;;;;;;;20.14;nan;99877.63;4988673;28;20086;-74
2022/08/14 07:25:01;;;;;;;22.95;19.30;;;;;;;20.13;nan;99806.50;4967201;28;20042;-75
2022/08/14 07:27:26;;;;;;;20.70;17.95;;;;;;;20.24;nan;99887.28;4989697;28;20464;-74
2022/08/14 07:29:52;;;;;;;21.83;17.92;;;;;;;20.26;nan;99839.66;4987405;28;20388;-75
2022/08/14 07:32:17;;;;;;;26.08;18.33;;;;;;;20.28;nan;99856.19;4989885;28;20093;-76
2022/08/14 07:34:43;;;;;;;22.88;17.88;;;;;;;20.44;nan;99928.81;4992608;28;20044;-76
2022/08/14 07:37:08;;;;;;;22.65;18.00;;;;;;;20.51;nan;99894.41;4956047;28;20037;-74
2022/08/14 07:39:33;;;;;;;22.80;18.90;;;;;;;;;;4989965;28;20041;-75
2022/08/14 07:41:59;;;;;;;24.37;18.10;;;;;;;20.51;nan;99870.34;4990689;28;20484;-74
2022/08/14 07:44:24;;;;;;;22.95;19.02;;;;;;;20.66;nan;99889.81;4981779;28;20276;-74
2022/08/14 07:46:50;;;;;;;22.65;18.63;;;;;;;20.63;nan;99935.91;4989638;28;20492;-74
2022/08/14 07:49:15;;;;;;;22.80;18.33;;;;;;;20.73;nan;99876.81;4986581;28;20084;-74
2022/08/14 07:51:41;;;;;;;23.88;17.98;;;;;;;20.87;nan;99869.50;4987756;28;20244;-75
2022/08/14 07:54:07;;;;;;;21.65;16.30;;;;;;;20.88;nan;99916.59;4985498;28;20477;-75
2022/08/14 07:56:32;;;;;;;19.88;17.38;;;;;;;21.06;nan;99922.03;4991827;28;20033;-75
2022/08/14 07:58:57;;;;;;;18.73;15.98;;;;;;;21.09;nan;99860.63;4985819;28;20038;-76
2022/08/14 08:01:25;;;;;;;20.27;15.80;;;;;;;21.21;nan;99882.28;4985781;28;20027;-74
2022/08/14 08:03:50;;;;;;;22.17;17.90;;;;;;;21.32;nan;99874.75;4983728;28;20520;-74
2022/08/14 08:06:16;;;;;;;22.60;16.65;;;;;;;21.42;nan;99881.75;4990105;28;20042;-75
2022/08/14 08:08:42;;;;;;;21.85;17.13;;;;;;;21.44;nan;99866.94;4973531;28;20060;-75
2022/08/14 08:11:10;;;;;;;19.02;15.52;;;;;;;21.57;nan;99827.75;4985293;28;20097;-75
2022/08/14 08:13:40;;;;;;;19.77;15.00;;;;;;;21.68;nan;99863.06;4975230;28;20054;-74
2022/08/14 08:16:07;;;;;;;18.90;16.27;;;;;;;21.71;nan;99859.75;4981227;28;20113;-75
2022/08/14 08:18:32;;;;;;;18.65;15.40;;;;;;;21.86;nan;99874.59;4973576;28;20039;-77
2022/08/14 08:20:58;;;;;;;18.45;15.75;;;;;;;21.98;nan;99849.84;4990400;28;20031;-76
2022/08/14 08:23:25;;;;;;;18.27;15.85;;;;;;;22.05;nan;99848.31;4988488;28;20105;-74
2022/08/14 08:25:51;;;;;;;21.30;15.90;;;;;;;22.12;nan;99884.56;4986492;28;20081;-74
2022/08/14 08:28:26;;;;;;;18.98;14.65;;;;;;;22.23;nan;99875.94;4969776;28;20039;-74
2022/08/14 08:30:53;;;;;;;15.77;13.80;;;;;;;22.32;nan;99872.47;4965995;28;20125;-75
2022/08/14 08:33:20;;;;;;;13.82;12.05;;;;;;;22.37;nan;99854.31;4968256;28;20453;-75
2022/08/14 08:35:47;;;;;;;17.23;12.43;;;;;;;22.46;nan;99863.16;4970997;28;20063;-74
2022/08/14 08:38:24;;;;;;;13.90;10.90;;;;;;;22.54;nan;99858.09;4971545;28;20035;-75
2022/08/14 08:40:54;;;;;;;12.30;9.57;;;;;;;22.58;nan;99859.00;4970637;28;20027;-75
2022/08/14 08:43:32;;;;;;;11.75;9.80;;;;;;;22.67;nan;99865.16;4970420;28;20030;-75
2022/08/14 08:46:19;;;;;;;14.43;10.37;;;;;;;22.76;nan;99814.94;4979967;28;20039;-75
2022/08/14 08:48:50;;;;;;;11.60;9.63;;;;;;;22.88;nan;99865.28;4963773;28;20109;-74
2022/08/14 08:51:28;;;;;;;11.52;9.85;;;;;;;22.88;nan;99852.63;4966288;28;20366;-74
2022/08/14 08:54:01;;;;;;;12.43;10.15;;;;;;;22.99;nan;99877.28;4967291;28;20037;-74
2022/08/14 08:56:52;;;;;;;13.60;10.07;;;;;;;23.02;nan;99865.88;4973157;28;20114;-76
2022/08/14 08:59:24;;;;;;;12.18;10.75;;;;;;;;;;4973160;28;20031;-77
2022/08/14 09:01:57;;;;;;;12.05;10.23;;;;;;;23.17;nan;99887.97;4976569;28;20070;-74
2022/08/14 09:04:28;;;;;;;12.55;11.25;;;;;;;23.07;nan;99828.09;4968888;28;20436;-75
2022/08/14 09:06:55;;;;;;;15.80;10.02;;;;;;;23.23;nan;99824.91;4960276;28;20086;-76
2022/08/14 09:09:24;;;;;;;11.38;9.88;;;;;;;23.36;nan;99848.81;4968058;28;20023;-75
2022/08/14 09:11:56;;;;;;;12.30;10.07;;;;;;;23.45;nan;99827.28;4972909;28;20051;-75
2022/08/14 09:14:23;;;;;;;11.60;9.68;;;;;;;23.61;nan;99858.97;4982598;28;20039;-76
2022/08/14 09:16:50;;;;;;;12.35;10.95;;;;;;;23.69;nan;99876.97;4970752;28;20032;-74
2022/08/14 09:19:16;;;;;;;14.40;10.38;;;;;;;23.80;nan;99843.25;4975193;28;20122;-74
2022/08/14 09:21:42;;;;;;;11.38;9.70;;;;;;;23.87;nan;99792.44;4973242;28;20035;-73
2022/08/14 09:24:08;;;;;;;12.20;8.90;;;;;;;23.93;nan;99760.72;4972871;28;20031;-74
2022/08/14 09:26:35;;;;;;;14.25;9.85;;;;;;;24.01;nan;99848.59;4971688;28;20367;-74
2022/08/14 09:29:02;;;;;;;11.90;9.38;;;;;;;24.10;nan;99837.78;4987696;28;20160;-74
2022/08/14 09:31:29;;;;;;;11.52;9.02;;;;;;;24.14;nan;99830.66;4992661;28;20212;-75
2022/08/14 09:34:00;;;;;;;12.63;8.95;;;;;;;24.22;nan;99818.22;4970750;28;20039;-73
2022/08/14 09:36:50;;;;;;;11.32;8.15;;;;;;;24.31;nan;99805.47;4987907;28;20540;-75
2022/08/14 09:39:44;;;;;;;9.23;7.95;;;;;;;24.41;nan;99803.16;4990100;28;20500;-74
2022/08/14 09:42:22;;;;;;;10.13;8.02;;;;;;;24.49;nan;99868.81;4991883;28;20045;-74
2022/08/14 09:45:16;;;;;;;12.07;8.73;;;;;;;24.64;nan;99821.66;4987819;28;20030;-75
2022/08/14 09:47:54;;;;;;;10.13;7.93;;;;;;;24.73;nan;99800.78;4986602;28;20077;-76
2022/08/14 09:50:43;;;;;;;7.93;6.90;;;;;;;24.85;nan;99808.09;4991269;28;20043;-75
2022/08/14 09:53:10;;;;;;;8.98;6.78;;;;;;;24.95;nan;99815.75;4991554;28;20073;-74
2022/08/14 09:55:36;;;;;;;10.77;6.57;;;;;;;25.03;nan;99812.13;4983588;28;20450;-74
2022/08/14 09:58:19;;;;;;;11.77;6.32;;;;;;;25.14;nan;99809.00;4991102;28;20035;-75
2022/08/14 10:00:48;;;;;;;8.30;6.18;;;;;;;25.14;nan;99799.03;4986501;28;20057;-74
2022/08/14 10:03:32;;;;;;;8.77;6.35;;;;;;;25.19;nan;99781.88;4983588;28;20045;-76
2022/08/14 10:06:08;;;;;;;8.20;6.70;;;;;;;25.30;nan;99784.88;4987044;28;20030;-74
2022/08/14 10:08:45;;;;;;;9.00;6.25;;;;;;;25.27;nan;99834.06;4990380;28;20048;-74
2022/08/14 10:11:16;;;;;;;6.10;5.50;;;;;;;25.49;nan;99781.59;4990040;28;20037;-74
2022/08/14 10:13:42;;;;;;;7.32;5.63;;;;;;;25.60;nan;99791.56;4989938;28;20041;-73
2022/08/14 10:16:07;;;;;;;9.68;6.28;;;;;;;25.74;nan;99780.41;4990541;28;20043;-75
2022/08/14 10:18:33;;;;;;;7.82;6.18;;;;;;;25.85;nan;99804.97;4987622;28;20037;-75
2022/08/14 10:21:01;;;;;;;8.40;6.10;;;;;;;25.73;nan;99756.47;4980636;28;20083;-74
2022/08/14 10:23:41;;;;;;;7.45;5.80;;;;;;;25.87;nan;99808.16;4989230;28;20142;-73
2022/08/14 10:26:08;;;;;;;8.50;6.20;;;;;;;25.89;nan;99765.44;4983773;28;20062;-73
2022/08/14 10:28:42;;;;;;;10.27;6.90;;;;;;;25.96;nan;99762.16;4985392;28;20038;-72
2022/08/14 10:31:23;;;;;;;9.93;6.38;;;;;;;26.01;nan;99781.59;4985723;28;20049;-74
2022/08/14 10:34:07;;;;;;;6.15;5.47;;;;;;;26.16;nan;99766.56;4976522;28;20040;-75
2022/08/14 10:36:37;;;;;;;9.43;5.18;;;;;;;26.22;nan;99780.59;4985359;28;20034;-74
2022/08/14 10:39:06;;;;;;;8.35;6.20;;;;;;;26.30;nan;99741.84;4988797;28;20034;-74
2022/08/14 10:41:40;;;;;;;9.45;6.53;;;;;;;26.36;nan;99753.16;4987767;28;20595;-74
2022/08/14 10:44:10;;;;;;;7.05;6.05;;;;;;;26.48;nan;99742.28;4989156;28;20034;-74
2022/08/14 10:47:01;;;;;;;6.07;5.40;;;;;;;26.60;nan;99800.88;4979058;28;20400;-74
2022/08/14 10:49:27;;;;;;;9.40;6.20;;;;;;;26.70;nan;99749.06;4974135;28;20109;-74
2022/08/14 10:52:07;;;;;;;7.53;6.35;;;;;;;26.82;nan;99745.47;4986312;28;20508;-75
2022/08/14 10:54:41;;;;;;;7.35;6.20;;;;;;;26.87;nan;99751.38;4988183;28;20038;-74
2022/08/14 10:57:21;;;;;;;7.18;5.80;;;;;;;26.95;nan;99760.44;4969598;28;20250;-75
2022/08/14 10:59:56;;;;;;;8.75;6.15;;;;;;;27.02;nan;99749.00;4989187;28;20507;-75
2022/08/14 11:02:32;;;;;;;7.97;5.55;;;;;;;27.10;nan;99769.66;4986532;28;20038;-74
2022/08/14 11:05:17;;;;;;;6.47;5.38;;;;;;;27.17;nan;99759.78;4988096;28;20546;-74
2022/08/14 11:07:54;;;;;;;8.07;5.93;;;;;;;27.24;nan;99731.38;4989877;28;20041;-75
2022/08/14 11:10:24;;;;;;;7.57;5.55;;;;;;;27.23;nan;99789.28;4991230;28;20453;-75
2022/08/14 11:12:54;;;;;;;7.32;5.72;;;;;;;27.34;nan;99755.94;4989712;28;20435;-74
2022/08/14 11:15:27;;;;;;;7.50;5.40;;;;;;;27.24;nan;99678.09;4988550;28;20038;-75
2022/08/14 11:17:53;;;;;;;8.25;6.40;;;;;;;;;;4987987;28;20050;-74
2022/08/14 11:20:22;;;;;;;8.02;6.10;;;;;;;27.22;nan;99720.13;4987143;28;20031;-74
2022/08/14 11:22:51;;;;;;;6.70;5.60;;;;;;;27.30;nan;99727.28;4991561;28;20030;-73
2022/08/14 11:25:19;;;;;;;6.43;5.80;;;;;;;27.44;nan;99707.84;4986660;28;20076;-74
2022/08/14 11:27:46;;;;;;;7.07;5.85;;;;;;;27.45;nan;99704.00;4988470;28;20125;-75
2022/08/14 11:30:15;;;;;;;6.50;5.40;;;;;;;27.52;nan;99696.81;4990385;28;20038;-74
2022/08/14 11:32:43;;;;;;;7.32;5.70;;;;;;;27.72;nan;99711.09;4992083;28;20468;-73
2022/08/14 11:35:14;;;;;;;7.23;5.90;;;;;;;27.78;nan;99712.38;4987292;28;20030;-74
2022/08/14 11:38:01;;;;;;;6.40;5.55;;;;;;;27.71;nan;99695.25;4978487;28;20034;-76
2022/08/14 11:40:33;;;;;;;6.28;5.65;;;;;;;27.85;nan;99694.75;4987431;28;20076;-73
2022/08/14 11:43:00;;;;;;;6.53;5.85;;;;;;;28.04;nan;99718.28;4981930;28;20031;-74
2022/08/14 11:45:31;;;;;;;5.68;5.18;;;;;;;28.04;nan;99702.03;4983794;28;20035;-74
2022/08/14 11:47:58;;;;;;;7.43;5.80;;;;;;;28.15;nan;99719.25;4961459;28;20085;-74
2022/08/14 11:50:27;;;;;;;7.32;6.22;;;;;;;28.25;nan;99734.13;4982410;28;20031;-75
2022/08/14 11:52:55;;;;;;;8.60;5.65;;;;;;;28.30;nan;99718.38;4987594;28;20120;-74
2022/08/14 11:55:23;;;;;;;6.57;5.35;;;;;;;28.42;nan;99722.81;4986031;28;20050;-74
2022/08/14 11:58:03;;;;;;;7.47;5.55;;;;;;;28.53;nan;99707.53;4972519;28;20030;-74
2022/08/14 12:00:29;;;;;;;8.68;5.85;;;;;;;28.44;nan;99660.94;4982817;28;20039;-74
2022/08/14 12:02:57;;;;;;;7.00;5.68;;;;;;;28.57;nan;99724.66;4976791;28;20393;-74
2022/08/14 12:05:50;;;;;;;7.40;5.63;;;;;;;28.68;nan;99716.66;4988093;28;20134;-74
2022/08/14 12:08:16;;;;;;;6.57;5.95;;;;;;;28.69;nan;99706.63;4985530;28;20432;-74
2022/08/14 12:10:43;;;;;;;10.30;5.50;;;;;;;28.61;nan;99695.69;4986535;28;20038;-74
2022/08/14 12:13:18;;;;;;;7.93;5.85;;;;;;;28.61;nan;99698.41;4968979;28;20393;-73
2022/08/14 12:15:57;;;;;;;8.43;5.90;;;;;;;28.59;nan;99689.06;4990211;28;20665;-74
2022/08/14 12:18:34;;;;;;;7.72;5.95;;;;;;;28.78;nan;99707.13;4990705;28;20054;-74